Time;durP1;ratioP1;P1;durP2;ratioP2;P2;SDS_P1;SDS_P2;PMS_P1;PMS_P2;Temp;Humidity;BMP_temperature;BMP_pressure;BME280_temperature;BME280_humidity;BME280_pressure;Samples;Min_cycle;Max_cycle;Signal;HPM_P1;HPM_P2
2023/05/16 00:00:13;;;;;;;2.73;2.50;;;;;12.00;96374.00;;;;5078462;28;20199;-68
2023/05/16 00:03:02;;;;;;;2.87;2.00;;;;;11.50;96362.00;;;;5079302;28;20207;-68
2023/05/16 00:05:52;;;;;;;2.70;2.37;;;;;11.30;96355.00;;;;5068520;28;20234;-67
2023/05/16 00:08:42;;;;;;;1.93;1.70;;;;;11.10;96365.00;;;;5072466;28;20219;-69
2023/05/16 00:11:31;;;;;;;2.07;1.87;;;;;11.40;96365.00;;;;5075624;28;20545;-69
2023/05/16 00:14:21;;;;;;;1.90;1.70;;;;;11.40;96369.00;;;;5076681;28;20252;-68
2023/05/16 00:17:11;;;;;;;2.60;2.33;;;;;11.40;96370.00;;;;5074736;28;20219;-68
2023/05/16 00:20:07;;;;;;;5.63;2.30;;;;;11.50;96384.00;;;;5077079;28;20200;-67
2023/05/16 00:22:59;;;;;;;4.10;1.70;;;;;11.50;96393.00;;;;5067838;28;20564;-68
2023/05/16 00:25:50;;;;;;;2.33;1.87;;;;;11.30;96393.00;;;;5060074;28;20204;-67
2023/05/16 00:28:39;;;;;;;3.00;1.87;;;;;11.50;96389.00;;;;5070863;28;20226;-67
2023/05/16 00:31:29;;;;;;;4.60;2.20;;;;;11.60;96384.00;;;;5060537;28;20217;-68
2023/05/16 00:34:20;;;;;;;3.33;1.67;;;;;11.60;96376.00;;;;5062418;28;20726;-67
2023/05/16 00:37:09;;;;;;;3.20;2.53;;;;;11.50;96361.00;;;;5058709;28;20220;-67
2023/05/16 00:39:58;;;;;;;2.80;2.27;;;;;11.40;96363.00;;;;5060535;28;20200;-68
2023/05/16 00:42:48;;;;;;;1.93;1.80;;;;;11.70;96350.00;;;;5070506;28;20244;-68
2023/05/16 00:45:37;;;;;;;1.87;1.77;;;;;11.90;96357.00;;;;5075275;28;20207;-68
2023/05/16 00:48:27;;;;;;;3.63;1.67;;;;;12.00;96346.00;;;;5070665;28;20753;-67
2023/05/16 00:51:16;;;;;;;2.60;2.23;;;;;12.10;96338.00;;;;5080592;28;20203;-67
2023/05/16 00:54:06;;;;;;;2.33;2.10;;;;;12.20;96338.00;;;;5062647;28;20231;-68
2023/05/16 00:56:56;;;;;;;6.60;2.23;;;;;12.20;96334.00;;;;5067373;28;20219;-67
2023/05/16 00:59:47;;;;;;;4.00;1.70;;;;;12.20;96322.00;;;;5065772;28;20222;-68
2023/05/16 01:02:36;;;;;;;1.90;1.73;;;;;11.90;96316.00;;;;5070646;28;20192;-68
2023/05/16 01:05:26;;;;;;;4.93;1.87;;;;;11.60;96313.00;;;;5065455;28;20204;-68
2023/05/16 01:08:15;;;;;;;3.93;2.50;;;;;11.70;96309.00;;;;5072069;28;20220;-68
2023/05/16 01:11:11;;;;;;;1.60;1.50;;;;;11.80;96304.00;;;;5059633;28;20200;-67
2023/05/16 01:14:08;;;;;;;2.07;1.77;;;;;12.10;96310.00;;;;5068951;28;20220;-67
2023/05/16 01:17:03;;;;;;;7.33;2.47;;;;;12.10;96301.00;;;;5069259;28;20302;-68
2023/05/16 01:20:00;;;;;;;2.30;2.10;;;;;12.20;96302.00;;;;5061029;28;20211;-67
2023/05/16 01:23:01;;;;;;;3.43;1.80;;;;;12.10;96299.00;;;;5067343;28;20675;-68
2023/05/16 01:25:58;;;;;;;2.60;1.90;;;;;12.00;96307.00;;;;5061498;28;20694;-67
2023/05/16 01:28:49;;;;;;;2.10;1.83;;;;;11.70;96326.00;;;;5062453;28;20226;-68
2023/05/16 01:31:38;;;;;;;2.67;1.95;;;;;11.60;96316.00;;;;5065350;28;20392;-68
2023/05/16 01:34:27;;;;;;;3.65;2.15;;;;;11.60;96309.00;;;;5062067;28;20994;-67
2023/05/16 01:37:19;;;;;;;3.28;2.40;;;;;11.50;96318.00;;;;5068120;28;20396;-67
2023/05/16 01:40:12;;;;;;;3.57;2.00;;;;;11.90;96323.00;;;;5068329;28;20215;-68
2023/05/16 01:43:08;;;;;;;2.03;1.80;;;;;12.10;96304.00;;;;5064877;28;20690;-67
2023/05/16 01:46:05;;;;;;;2.50;2.30;;;;;12.00;96301.00;;;;5067090;28;20208;-68
2023/05/16 01:48:57;;;;;;;1.97;1.87;;;;;11.90;96292.00;;;;5067261;28;20276;-68
2023/05/16 01:51:50;;;;;;;2.13;1.93;;;;;11.60;96277.00;;;;5076087;28;20225;-68
2023/05/16 01:54:43;;;;;;;2.80;1.77;;;;;11.70;96272.00;;;;5082825;28;20212;-67
2023/05/16 01:57:32;;;;;;;4.50;1.73;;;;;11.40;96263.00;;;;5062977;28;20232;-69
2023/05/16 02:00:22;;;;;;;2.80;2.07;;;;;11.40;96265.00;;;;5065284;28;20685;-68
2023/05/16 02:03:12;;;;;;;2.73;2.27;;;;;11.80;96269.00;;;;5069915;28;20238;-68
2023/05/16 02:06:01;;;;;;;3.73;1.93;;;;;12.00;96255.00;;;;5067249;28;20196;-68
2023/05/16 02:08:50;;;;;;;5.77;2.30;;;;;12.00;96263.00;;;;5065090;28;20579;-67
2023/05/16 02:11:39;;;;;;;2.23;1.70;;;;;11.50;96265.00;;;;5064263;28;20196;-70
2023/05/16 02:14:28;;;;;;;1.87;1.70;;;;;11.90;96256.00;;;;5078123;28;20232;-69
2023/05/16 02:17:17;;;;;;;2.30;2.10;;;;;12.00;96212.00;;;;5068568;28;20227;-68
2023/05/16 02:20:10;;;;;;;8.90;2.67;;;;;11.70;96187.00;;;;5069233;28;20690;-68
2023/05/16 02:22:59;;;;;;;3.67;1.90;;;;;11.60;96208.00;;;;5066608;28;20204;-67
2023/05/16 02:25:48;;;;;;;3.17;2.10;;;;;11.90;96232.00;;;;5065037;28;20207;-68
2023/05/16 02:28:37;;;;;;;6.17;2.33;;;;;11.60;96239.00;;;;5081416;28;20251;-68
2023/05/16 02:31:27;;;;;;;2.13;1.90;;;;;11.90;96221.00;;;;5062403;28;20196;-69
2023/05/16 02:34:16;;;;;;;2.47;2.27;;;;;12.10;96214.00;;;;5064582;28;20357;-69
2023/05/16 02:37:07;;;;;;;2.10;1.90;;;;;12.20;96197.00;;;;5072977;28;20725;-69
2023/05/16 02:39:55;;;;;;;2.43;2.23;;;;;12.10;96178.00;;;;5066580;28;20572;-69
2023/05/16 02:42:44;;;;;;;3.50;2.47;;;;;11.90;96177.00;;;;5062368;28;20291;-69
2023/05/16 02:45:34;;;;;;;3.13;2.83;;;;;12.20;96192.00;;;;5066999;28;20226;-69
2023/05/16 02:48:23;;;;;;;3.27;2.53;;;;;12.30;96190.00;;;;5075913;28;20317;-69
2023/05/16 02:51:11;;;;;;;2.80;2.60;;;;;12.40;96198.00;;;;5065996;28;20206;-69
2023/05/16 02:54:02;;;;;;;3.60;2.90;;;;;12.40;96213.00;;;;5068835;28;20220;-68
2023/05/16 02:56:51;;;;;;;4.70;2.73;;;;;12.50;96206.00;;;;5062120;28;20247;-69
2023/05/16 02:59:40;;;;;;;7.80;2.80;;;;;12.60;96215.00;;;;5088339;28;20211;-69
2023/05/16 03:02:29;;;;;;;4.20;2.40;;;;;12.60;96210.00;;;;5100455;28;20235;-69
2023/05/16 03:05:19;;;;;;;4.70;2.80;;;;;12.60;96219.00;;;;5092446;28;20203;-68
2023/05/16 03:08:08;;;;;;;5.97;3.20;;;;;12.60;96217.00;;;;5099862;28;20284;-69
2023/05/16 03:10:58;;;;;;;2.43;2.23;;;;;12.50;96218.00;;;;5084290;28;20440;-69
2023/05/16 03:13:47;;;;;;;3.70;2.50;;;;;12.60;96232.00;;;;5089565;28;20199;-69
2023/05/16 03:16:37;;;;;;;5.20;2.70;;;;;12.60;96230.00;;;;5099403;28;20684;-69
2023/05/16 03:19:26;;;;;;;3.27;2.97;;;;;12.50;96222.00;;;;5104824;28;20198;-68
2023/05/16 03:22:15;;;;;;;2.90;2.40;;;;;11.60;96222.00;;;;5106837;28;20283;-73
2023/05/16 03:25:05;;;;;;;2.47;2.13;;;;;11.60;96223.00;;;;5086929;28;20200;-67
2023/05/16 03:27:56;;;;;;;2.80;2.20;;;;;11.60;96242.00;;;;5096579;28;20349;-70
2023/05/16 03:30:45;;;;;;;4.17;2.70;;;;;12.10;96245.00;;;;5091337;28;20195;-67
2023/05/16 03:33:34;;;;;;;2.40;2.13;;;;;12.20;96237.00;;;;5089611;28;20213;-66
2023/05/16 03:36:24;;;;;;;3.53;2.67;;;;;12.30;96231.00;;;;5085969;28;20199;-67
2023/05/16 03:39:13;;;;;;;2.50;2.30;;;;;12.20;96248.00;;;;5096216;28;20209;-67
2023/05/16 03:42:02;;;;;;;3.30;3.00;;;;;12.10;96257.00;;;;5100428;28;20569;-67
2023/05/16 03:44:53;;;;;;;3.00;2.70;;;;;12.30;96262.00;;;;5097137;28;20199;-67
2023/05/16 03:47:42;;;;;;;5.37;2.73;;;;;12.60;96267.00;;;;5089403;28;20788;-67
2023/05/16 03:50:31;;;;;;;3.03;2.80;;;;;12.50;96238.00;;;;5097814;28;20200;-69
2023/05/16 03:53:20;;;;;;;4.47;2.53;;;;;12.40;96221.00;;;;5096439;28;20748;-67
2023/05/16 03:56:09;;;;;;;3.43;2.33;;;;;12.50;96215.00;;;;5096916;28;20284;-67
2023/05/16 03:58:58;;;;;;;4.37;2.33;;;;;12.40;96219.00;;;;5090080;28;20701;-67
2023/05/16 04:01:49;;;;;;;3.00;2.70;;;;;12.60;96215.00;;;;5097080;28;20772;-67
2023/05/16 04:04:38;;;;;;;3.00;2.40;;;;;12.50;96214.00;;;;5091573;28;20199;-67
2023/05/16 04:07:27;;;;;;;2.73;2.53;;;;;12.50;96214.00;;;;5105335;28;20241;-67
2023/05/16 04:10:16;;;;;;;4.23;2.80;;;;;12.40;96214.00;;;;5096972;28;20202;-67
2023/05/16 04:13:05;;;;;;;3.00;2.80;;;;;12.50;96227.00;;;;5087302;28;20237;-67
2023/05/16 04:15:54;;;;;;;3.43;3.13;;;;;12.70;96232.00;;;;5077642;28;20599;-67
2023/05/16 04:18:45;;;;;;;6.37;2.73;;;;;12.80;96234.00;;;;5075957;28;20285;-67
2023/05/16 04:21:34;;;;;;;5.30;3.00;;;;;12.80;96238.00;;;;5087306;28;20679;-67
2023/05/16 04:24:27;;;;;;;3.30;2.97;;;;;12.80;96240.00;;;;5102649;28;20259;-67
2023/05/16 04:27:16;;;;;;;5.00;3.37;;;;;12.90;96248.00;;;;5097095;28;20221;-67
2023/05/16 04:30:06;;;;;;;8.03;3.70;;;;;12.90;96235.00;;;;5085340;28;20226;-67
2023/05/16 04:32:56;;;;;;;7.90;3.27;;;;;12.80;96234.00;;;;5104086;28;20209;-67
2023/05/16 04:35:47;;;;;;;3.93;2.80;;;;;12.90;96240.00;;;;5099009;28;20222;-67
2023/05/16 04:38:36;;;;;;;4.23;2.90;;;;;13.00;96234.00;;;;5076896;28;20238;-67
2023/05/16 04:41:25;;;;;;;4.13;2.53;;;;;13.20;96217.00;;;;5072618;28;20210;-67
2023/05/16 04:44:14;;;;;;;3.10;2.80;;;;;13.10;96234.00;;;;5081153;28;20211;-67
2023/05/16 04:47:03;;;;;;;5.00;3.07;;;;;12.70;96242.00;;;;5079431;28;20227;-67
2023/05/16 04:49:52;;;;;;;6.47;2.80;;;;;13.00;96246.00;;;;5088799;28;20203;-68
2023/05/16 04:52:43;;;;;;;3.93;3.10;;;;;12.90;96239.00;;;;5105846;28;20246;-67
2023/05/16 04:55:32;;;;;;;3.47;2.70;;;;;12.50;96223.00;;;;5098237;28;20237;-68
2023/05/16 04:58:22;;;;;;;5.07;3.00;;;;;12.80;96233.00;;;;5089701;28;21486;-67
2023/05/16 05:01:11;;;;;;;5.93;3.00;;;;;13.00;96241.00;;;;5083277;28;20579;-67
2023/05/16 05:04:01;;;;;;;7.30;2.50;;;;;13.10;96235.00;;;;5092755;28;20214;-68
2023/05/16 05:06:50;;;;;;;8.33;3.60;;;;;13.10;96234.00;;;;5078796;28;20215;-68
2023/05/16 05:09:42;;;;;;;4.60;3.23;;;;;13.30;96237.00;;;;5080955;28;20257;-68
2023/05/16 05:12:31;;;;;;;4.83;4.07;;;;;13.20;96243.00;;;;5074051;28;20819;-67
2023/05/16 05:15:20;;;;;;;3.03;2.73;;;;;13.00;96243.00;;;;5084294;28;20227;-67
2023/05/16 05:18:09;;;;;;;5.30;3.10;;;;;12.60;96230.00;;;;5080733;28;20951;-68
2023/05/16 05:20:59;;;;;;;6.57;3.57;;;;;12.50;96217.00;;;;5077076;28;20797;-67
2023/05/16 05:23:49;;;;;;;5.03;3.73;;;;;12.90;96232.00;;;;5078312;28;20567;-68
2023/05/16 05:26:39;;;;;;;5.07;4.17;;;;;12.80;96228.00;;;;5075838;28;20200;-67
2023/05/16 05:29:28;;;;;;;7.27;4.50;;;;;13.10;96227.00;;;;5090672;28;20202;-68
2023/05/16 05:32:17;;;;;;;9.47;5.10;;;;;13.00;96229.00;;;;5090410;28;20207;-68
2023/05/16 05:35:07;;;;;;;4.03;3.63;;;;;12.80;96227.00;;;;5092612;28;20227;-67
2023/05/16 05:37:56;;;;;;;5.23;3.77;;;;;12.70;96231.00;;;;5096201;28;20769;-67
2023/05/16 05:40:45;;;;;;;6.47;4.53;;;;;12.90;96234.00;;;;5090484;28;20305;-68
2023/05/16 05:43:36;;;;;;;8.33;6.90;;;;;13.20;96235.00;;;;5081130;28;20203;-68
2023/05/16 05:46:25;;;;;;;9.13;6.30;;;;;13.20;96221.00;;;;5084803;28;20231;-68
2023/05/16 05:49:14;;;;;;;8.45;5.40;;;;;12.80;96230.00;;;;5097200;28;20813;-67
2023/05/16 05:52:04;;;;;;;5.60;4.20;;;;;12.70;96236.00;;;;5100984;28;20571;-67
2023/05/16 05:54:53;;;;;;;9.23;3.97;;;;;13.00;96239.00;;;;5100828;28;20203;-68
2023/05/16 05:57:42;;;;;;;5.07;4.33;;;;;13.20;96247.00;;;;5084661;28;20694;-68
2023/05/16 06:00:32;;;;;;;4.63;3.97;;;;;13.30;96250.00;;;;5092700;28;20203;-67
2023/05/16 06:03:21;;;;;;;4.63;4.13;;;;;13.40;96254.00;;;;5103510;28;20213;-67
2023/05/16 06:06:11;;;;;;;5.87;4.83;;;;;13.40;96257.00;;;;5104605;28;20669;-67
2023/05/16 06:09:00;;;;;;;3.67;3.37;;;;;13.20;96249.00;;;;5088256;28;20215;-68
2023/05/16 06:11:49;;;;;;;4.80;4.40;;;;;13.40;96254.00;;;;5090550;28;20204;-67
2023/05/16 06:14:38;;;;;;;5.50;3.50;;;;;13.30;96247.00;;;;5091217;28;20206;-68
2023/05/16 06:17:29;;;;;;;4.03;3.20;;;;;13.50;96240.00;;;;5102501;28;20222;-67
2023/05/16 06:20:18;;;;;;;4.13;3.73;;;;;13.60;96245.00;;;;5100592;28;20202;-68
2023/05/16 06:23:07;;;;;;;3.73;3.40;;;;;13.20;96248.00;;;;5105205;28;20700;-68
2023/05/16 06:25:56;;;;;;;3.73;3.33;;;;;13.10;96262.00;;;;5081029;28;20213;-67
2023/05/16 06:28:45;;;;;;;4.70;3.80;;;;;13.50;96278.00;;;;5076604;28;20725;-67
2023/05/16 06:31:34;;;;;;;5.77;4.20;;;;;13.50;96281.00;;;;5081082;28;20208;-67
2023/05/16 06:34:27;;;;;;;3.90;3.50;;;;;13.70;96297.00;;;;5092374;28;20579;-67
2023/05/16 06:37:16;;;;;;;3.57;3.27;;;;;13.70;96322.00;;;;5102798;28;20230;-67
2023/05/16 06:40:06;;;;;;;5.77;4.57;;;;;13.80;96321.00;;;;5098671;28;20224;-68
2023/05/16 06:42:57;;;;;;;7.93;4.43;;;;;13.70;96329.00;;;;5075013;28;20196;-67
2023/05/16 06:45:46;;;;;;;7.83;4.37;;;;;13.60;96335.00;;;;5096511;28;20191;-68
2023/05/16 06:48:35;;;;;;;10.80;4.63;;;;;13.40;96334.00;;;;5072337;28;20223;-68
2023/05/16 06:51:26;;;;;;;9.00;4.37;;;;;13.10;96345.00;;;;5079186;28;20620;-68
2023/05/16 06:54:15;;;;;;;5.97;4.37;;;;;13.10;96353.00;;;;5078019;28;20211;-67
2023/05/16 06:57:04;;;;;;;4.63;3.97;;;;;13.40;96351.00;;;;5095507;28;20226;-67
2023/05/16 06:59:53;;;;;;;7.53;4.10;;;;;13.50;96359.00;;;;5083416;28;20207;-67
2023/05/16 07:02:42;;;;;;;5.60;4.40;;;;;13.60;96360.00;;;;5074324;28;20690;-68
2023/05/16 07:05:31;;;;;;;4.77;4.03;;;;;13.70;96356.00;;;;5098019;28;20199;-68
2023/05/16 07:08:22;;;;;;;4.57;4.03;;;;;13.70;96356.00;;;;5085495;28;20892;-68
2023/05/16 07:11:11;;;;;;;12.93;4.63;;;;;13.70;96352.00;;;;5074152;28;20211;-68
2023/05/16 07:14:00;;;;;;;5.50;4.27;;;;;13.70;96342.00;;;;5071547;28;20212;-67
2023/05/16 07:16:49;;;;;;;3.83;3.50;;;;;13.70;96325.00;;;;5089711;28;20223;-67
2023/05/16 07:19:38;;;;;;;4.23;3.83;;;;;13.60;96317.00;;;;5081830;28;20208;-67
2023/05/16 07:22:27;;;;;;;10.27;5.47;;;;;13.60;96323.00;;;;5093235;28;20208;-67
2023/05/16 07:25:18;;;;;;;4.07;3.73;;;;;13.60;96321.00;;;;5087751;28;20214;-67
2023/05/16 07:28:07;;;;;;;7.53;4.53;;;;;13.50;96313.00;;;;5092473;28;20238;-67
2023/05/16 07:30:57;;;;;;;5.13;4.60;;;;;13.50;96302.00;;;;5093425;28;20210;-66
2023/05/16 07:33:47;;;;;;;6.50;5.33;;;;;13.50;96295.00;;;;5092460;28;20206;-67
2023/05/16 07:36:36;;;;;;;6.67;5.03;;;;;13.70;96293.00;;;;5095690;28;20219;-67
2023/05/16 07:39:26;;;;;;;5.97;5.20;;;;;13.60;96277.00;;;;5086081;28;20206;-66
2023/05/16 07:42:16;;;;;;;6.67;5.30;;;;;13.70;96261.00;;;;5094887;28;20210;-67
2023/05/16 07:45:07;;;;;;;15.27;10.80;;;;;13.70;96263.00;;;;5092288;28;20678;-66
2023/05/16 07:47:56;;;;;;;7.60;5.03;;;;;13.90;96253.00;;;;5094499;28;20222;-66
2023/05/16 07:50:45;;;;;;;5.87;4.60;;;;;13.50;96257.00;;;;5093183;28;20826;-66
2023/05/16 07:53:34;;;;;;;4.93;4.43;;;;;13.60;96267.00;;;;5098036;28;20225;-67
2023/05/16 07:56:23;;;;;;;7.30;4.70;;;;;13.30;96265.00;;;;5096775;28;20226;-67
2023/05/16 07:59:14;;;;;;;7.33;3.80;;;;;13.70;96268.00;;;;5097415;28;20596;-66
2023/05/16 08:02:03;;;;;;;10.37;4.67;;;;;13.80;96255.00;;;;5094341;28;20702;-67
2023/05/16 08:04:52;;;;;;;4.60;4.20;;;;;14.00;96248.00;;;;5092181;28;20198;-66
2023/05/16 08:07:41;;;;;;;7.57;5.03;;;;;14.20;96259.00;;;;5092857;28;20614;-67
2023/05/16 08:10:31;;;;;;;5.97;4.93;;;;;14.30;96252.00;;;;5095578;28;20203;-66
2023/05/16 08:13:20;;;;;;;7.10;4.57;;;;;14.50;96241.00;;;;5092333;28;20209;-66
2023/05/16 08:16:10;;;;;;;4.80;4.10;;;;;14.20;96232.00;;;;5094592;28;20447;-66
2023/05/16 08:18:59;;;;;;;6.03;4.23;;;;;14.40;96237.00;;;;5092010;28;20264;-67
2023/05/16 08:21:48;;;;;;;8.33;4.87;;;;;14.60;96222.00;;;;5094721;28;20202;-66
2023/05/16 08:24:37;;;;;;;3.93;3.57;;;;;14.60;96234.00;;;;5087494;28;20203;-67
2023/05/16 08:27:27;;;;;;;4.70;3.80;;;;;14.00;96237.00;;;;5088775;28;20608;-67
2023/05/16 08:30:16;;;;;;;5.80;5.20;;;;;13.80;96234.00;;;;5083217;28;20273;-66
2023/05/16 08:33:09;;;;;;;5.50;4.53;;;;;14.10;96233.00;;;;5092491;28;20223;-67
2023/05/16 08:35:58;;;;;;;5.73;5.10;;;;;14.40;96234.00;;;;5094543;28;20211;-66
2023/05/16 08:38:48;;;;;;;6.07;4.73;;;;;14.40;96241.00;;;;5084692;28;20196;-67
2023/05/16 08:41:37;;;;;;;6.47;4.70;;;;;14.60;96248.00;;;;5081189;28;20194;-67
2023/05/16 08:44:26;;;;;;;5.70;4.70;;;;;14.50;96259.00;;;;5101415;28;20689;-67
2023/05/16 08:47:20;;;;;;;6.97;5.07;;;;;14.40;96270.00;;;;5086885;28;20215;-67
2023/05/16 08:50:11;;;;;;;6.13;4.13;;;;;14.60;96298.00;;;;5074385;28;20200;-67
2023/05/16 08:53:06;;;;;;;8.77;5.07;;;;;14.60;96304.00;;;;5088550;28;20587;-67
2023/05/16 08:55:55;;;;;;;5.97;4.47;;;;;14.50;96289.00;;;;5079442;28;20211;-67
2023/05/16 08:58:45;;;;;;;6.07;5.00;;;;;14.70;96292.00;;;;5076919;28;20224;-67
2023/05/16 09:01:34;;;;;;;5.00;4.27;;;;;14.80;96282.00;;;;5077073;28;20201;-67
2023/05/16 09:04:24;;;;;;;5.90;5.20;;;;;14.90;96258.00;;;;5068610;28;20200;-67
2023/05/16 09:07:15;;;;;;;6.37;5.00;;;;;14.90;96233.00;;;;5070028;28;20219;-67
2023/05/16 09:10:05;;;;;;;8.33;5.47;;;;;15.40;96227.00;;;;5071674;28;20229;-67
2023/05/16 09:12:54;;;;;;;9.00;5.17;;;;;15.60;96230.00;;;;5074694;28;20249;-67
2023/05/16 09:15:44;;;;;;;5.80;5.20;;;;;15.80;96238.00;;;;5062276;28;20214;-67
2023/05/16 09:18:34;;;;;;;7.50;5.67;;;;;15.70;96238.00;;;;5068547;28;20236;-67
2023/05/16 09:21:23;;;;;;;8.30;5.00;;;;;16.10;96249.00;;;;5062767;28;20207;-67
2023/05/16 09:24:14;;;;;;;8.77;5.33;;;;;16.00;96251.00;;;;5058351;28;20291;-66
2023/05/16 09:27:09;;;;;;;6.00;4.73;;;;;15.80;96262.00;;;;5055443;28;20227;-66
2023/05/16 09:29:59;;;;;;;5.70;5.00;;;;;15.80;96247.00;;;;5062553;28;20660;-67
2023/05/16 09:32:48;;;;;;;7.37;5.97;;;;;15.80;96252.00;;;;5063591;28;20200;-67
2023/05/16 09:35:37;;;;;;;8.85;6.90;;;;;15.70;96257.00;;;;5073994;28;20391;-67
2023/05/16 09:38:29;;;;;;;7.87;7.07;;;;;15.80;96262.00;;;;5061593;28;20597;-67
2023/05/16 09:41:21;;;;;;;7.97;6.27;;;;;15.80;96266.00;;;;5063827;28;20215;-67
2023/05/16 09:44:10;;;;;;;9.00;5.80;;;;;15.50;96277.00;;;;5068386;28;20296;-67
2023/05/16 09:47:00;;;;;;;5.20;4.40;;;;;15.30;96286.00;;;;5061327;28;20227;-66
2023/05/16 09:49:53;;;;;;;7.60;5.60;;;;;15.20;96279.00;;;;5070553;28;20207;-66
2023/05/16 09:52:42;;;;;;;7.10;5.03;;;;;15.00;96284.00;;;;5079000;28;20196;-66
2023/05/16 09:55:31;;;;;;;7.60;4.83;;;;;15.00;96291.00;;;;5066081;28;20200;-67
2023/05/16 09:58:29;;;;;;;5.17;4.67;;;;;14.90;96288.00;;;;5077703;28;20226;-67
2023/05/16 10:01:19;;;;;;;8.93;5.07;;;;;14.90;96284.00;;;;5096824;28;20206;-66
2023/05/16 10:04:12;;;;;;;6.40;4.83;;;;;14.50;96294.00;;;;5090247;28;20773;-66
2023/05/16 10:07:03;;;;;;;5.87;4.93;;;;;14.60;96289.00;;;;5084323;28;20227;-66
2023/05/16 10:09:53;;;;;;;6.23;5.40;;;;;15.00;96304.00;;;;5079996;28;20207;-66
2023/05/16 10:12:43;;;;;;;9.70;5.20;;;;;15.10;96312.00;;;;5097193;28;20198;-66
2023/05/16 10:15:34;;;;;;;6.40;5.77;;;;;15.10;96286.00;;;;5089767;28;20210;-66
2023/05/16 10:18:25;;;;;;;9.90;5.83;;;;;15.20;96262.00;;;;5087773;28;20227;-66
2023/05/16 10:21:16;;;;;;;6.70;5.10;;;;;15.00;96263.00;;;;5086669;28;20196;-66
2023/05/16 10:24:07;;;;;;;7.10;5.57;;;;;14.60;96259.00;;;;5081603;28;20211;-66
2023/05/16 10:26:57;;;;;;;5.07;4.17;;;;;14.60;96251.00;;;;5078420;28;20236;-66
2023/05/16 10:29:46;;;;;;;8.27;5.57;;;;;14.70;96233.00;;;;5083298;28;20199;-66
2023/05/16 10:32:42;;;;;;;7.07;3.90;;;;;14.50;96232.00;;;;5080645;28;20203;-66
2023/05/16 10:35:32;;;;;;;3.67;3.37;;;;;14.30;96220.00;;;;5088715;28;20205;-66
2023/05/16 10:38:23;;;;;;;4.23;3.27;;;;;14.40;96232.00;;;;5087542;28;20619;-69
2023/05/16 10:41:12;;;;;;;3.17;2.87;;;;;14.70;96233.00;;;;5089252;28;20199;-69
2023/05/16 10:44:03;;;;;;;3.37;3.07;;;;;14.80;96234.00;;;;5088089;28;20218;-69
2023/05/16 10:46:52;;;;;;;5.03;4.03;;;;;14.50;96200.00;;;;5084202;28;20219;-68
2023/05/16 10:49:43;;;;;;;3.57;2.70;;;;;14.50;96190.00;;;;5088686;28;20196;-69
2023/05/16 10:52:34;;;;;;;5.03;3.20;;;;;14.70;96182.00;;;;5088105;28;20199;-69
2023/05/16 10:55:23;;;;;;;3.30;2.73;;;;;14.50;96170.00;;;;5074818;28;20981;-68
2023/05/16 10:58:12;;;;;;;3.60;3.30;;;;;14.40;96157.00;;;;5087572;28;20227;-69
2023/05/16 11:01:22;;;;;;;4.13;2.73;;;;;14.90;96155.00;;;;5083528;28;20207;-69
2023/05/16 11:04:12;;;;;;;3.50;3.03;;;;;14.40;96185.00;;;;5080938;28;20683;-67
2023/05/16 11:07:04;;;;;;;3.37;3.07;;;;;14.70;96185.00;;;;5087313;28;20230;-67
2023/05/16 11:10:08;;;;;;;3.03;2.70;;;;;14.40;96165.00;;;;5079488;28;20209;-65
2023/05/16 11:13:03;;;;;;;3.30;3.00;;;;;14.70;96153.00;;;;5073614;28;20215;-66
2023/05/16 11:15:52;;;;;;;2.73;2.53;;;;;14.80;96159.00;;;;5087028;28;20584;-65
2023/05/16 11:18:50;;;;;;;3.70;3.00;;;;;14.40;96163.00;;;;5086230;28;20597;-66
2023/05/16 11:22:06;;;;;;;4.73;3.57;;;;;14.50;96144.00;;;;5082314;28;20207;-66
2023/05/16 11:24:57;;;;;;;4.90;3.50;;;;;14.50;96130.00;;;;5093929;28;20208;-65
2023/05/16 11:27:47;;;;;;;3.00;2.73;;;;;15.00;96131.00;;;;5085585;28;20226;-65
2023/05/16 11:30:37;;;;;;;3.10;2.80;;;;;15.30;96128.00;;;;5077879;28;20675;-65
2023/05/16 11:33:28;;;;;;;1.60;1.43;;;;;14.80;96134.00;;;;5079601;28;20203;-68
2023/05/16 11:36:17;;;;;;;2.80;2.60;;;;;15.00;96136.00;;;;5070931;28;20237;-65
2023/05/16 11:39:09;;;;;;;2.40;2.20;;;;;15.00;96137.00;;;;5073258;28;20226;-66
2023/05/16 11:41:58;;;;;;;3.57;2.30;;;;;15.20;96141.00;;;;5088930;28;20203;-65
2023/05/16 11:44:47;;;;;;;2.73;2.53;;;;;15.20;96151.00;;;;5097343;28;20196;-66
2023/05/16 11:47:38;;;;;;;2.73;2.53;;;;;14.90;96155.00;;;;5099065;28;20298;-66
2023/05/16 11:50:27;;;;;;;3.83;2.40;;;;;14.70;96154.00;;;;5094415;28;20691;-67
2023/05/16 11:53:16;;;;;;;2.60;2.40;;;;;14.90;96153.00;;;;5093682;28;20207;-67
2023/05/16 11:56:08;;;;;;;2.50;2.10;;;;;14.50;96141.00;;;;5101923;28;20207;-68
2023/05/16 11:58:58;;;;;;;2.00;1.90;;;;;14.40;96129.00;;;;5095318;28;20229;-68
2023/05/16 12:01:48;;;;;;;2.30;2.10;;;;;14.60;96131.00;;;;5093139;28;20195;-68
2023/05/16 12:04:38;;;;;;;1.77;1.67;;;;;14.70;96140.00;;;;5087492;28;20203;-68
2023/05/16 12:07:29;;;;;;;2.87;2.17;;;;;14.50;96143.00;;;;5091487;28;20749;-68
2023/05/16 12:10:18;;;;;;;2.20;2.00;;;;;14.60;96129.00;;;;5093574;28;20203;-69
2023/05/16 12:13:09;;;;;;;2.60;2.03;;;;;14.50;96115.00;;;;5087517;28;20195;-68
2023/05/16 12:15:59;;;;;;;2.00;1.90;;;;;14.80;96111.00;;;;5089359;28;20207;-67
2023/05/16 12:18:48;;;;;;;2.70;2.50;;;;;14.80;96096.00;;;;5094669;28;20596;-67
2023/05/16 12:21:39;;;;;;;2.10;1.90;;;;;15.20;96096.00;;;;5094322;28;20251;-66
2023/05/16 12:24:31;;;;;;;1.63;1.53;;;;;15.10;96096.00;;;;5095974;28;20202;-70
2023/05/16 12:27:23;;;;;;;1.80;1.70;;;;;15.30;96105.00;;;;5105085;28;20222;-71
2023/05/16 12:30:14;;;;;;;2.60;2.20;;;;;15.40;96107.00;;;;5095021;28;20204;-71
2023/05/16 12:33:08;;;;;;;1.93;1.83;;;;;15.60;96112.00;;;;5089164;28;20214;-70
2023/05/16 12:36:00;;;;;;;1.43;1.33;;;;;14.60;96095.00;;;;5096579;28;20228;-71
2023/05/16 12:38:53;;;;;;;1.43;1.33;;;;;15.10;96106.00;;;;5092126;28;20251;-68
2023/05/16 12:41:43;;;;;;;1.60;1.50;;;;;15.30;96095.00;;;;5091632;28;20200;-69
2023/05/16 12:44:33;;;;;;;2.00;1.80;;;;;15.50;96093.00;;;;5074991;28;20212;-69
2023/05/16 12:47:24;;;;;;;1.63;1.50;;;;;15.00;96075.00;;;;5095527;28;20226;-66
2023/05/16 12:50:16;;;;;;;1.73;1.57;;;;;15.50;96078.00;;;;5091042;28;20214;-66
2023/05/16 12:53:06;;;;;;;1.47;1.37;;;;;15.90;96063.00;;;;5098866;28;20196;-67
2023/05/16 12:55:55;;;;;;;2.13;1.67;;;;;15.80;96063.00;;;;5083351;28;20558;-70
2023/05/16 12:58:45;;;;;;;2.03;1.63;;;;;16.10;96071.00;;;;5097949;28;20226;-68
2023/05/16 13:01:35;;;;;;;1.83;1.63;;;;;16.10;96060.00;;;;5087174;28;20575;-66
2023/05/16 13:04:25;;;;;;;4.77;2.20;;;;;16.20;96078.00;;;;5087988;28;20199;-66
2023/05/16 13:07:16;;;;;;;1.87;1.40;;;;;15.70;96083.00;;;;5090034;28;20232;-67
2023/05/16 13:10:09;;;;;;;1.87;1.77;;;;;15.40;96078.00;;;;5083047;28;20669;-65
2023/05/16 13:12:58;;;;;;;2.07;1.93;;;;;15.50;96072.00;;;;5088300;28;20658;-65
2023/05/16 13:15:48;;;;;;;3.30;1.90;;;;;15.20;96071.00;;;;5093574;28;20277;-64
2023/05/16 13:18:37;;;;;;;1.63;1.53;;;;;15.30;96063.00;;;;5097027;28;20237;-67
2023/05/16 13:21:30;;;;;;;1.53;1.43;;;;;15.30;96058.00;;;;5093524;28;20207;-67
2023/05/16 13:24:19;;;;;;;2.43;2.23;;;;;15.00;96067.00;;;;5085950;28;20217;-65
2023/05/16 13:27:08;;;;;;;1.50;1.40;;;;;15.30;96063.00;;;;5088313;28;20216;-66
2023/05/16 13:29:58;;;;;;;1.70;1.60;;;;;15.00;96057.00;;;;5087290;28;20199;-69
2023/05/16 13:32:47;;;;;;;1.93;1.60;;;;;14.80;96049.00;;;;5091258;28;20198;-65
2023/05/16 13:35:37;;;;;;;1.67;1.57;;;;;14.80;96054.00;;;;5102633;28;20810;-65
2023/05/16 13:38:27;;;;;;;1.67;1.57;;;;;14.80;96039.00;;;;5091211;28;20731;-69
2023/05/16 13:41:16;;;;;;;2.53;1.63;;;;;15.40;96041.00;;;;5083445;28;20223;-66
2023/05/16 13:44:05;;;;;;;1.47;1.37;;;;;15.60;96037.00;;;;5080038;28;20203;-67
2023/05/16 13:46:55;;;;;;;2.10;1.43;;;;;15.60;96037.00;;;;5077626;28;20235;-68
2023/05/16 13:49:44;;;;;;;1.70;1.60;;;;;15.80;96040.00;;;;5088424;28;20693;-67
2023/05/16 13:52:33;;;;;;;3.90;1.97;;;;;15.70;96038.00;;;;5090309;28;20198;-67
2023/05/16 13:55:25;;;;;;;6.00;1.80;;;;;15.50;96029.00;;;;5106797;28;20211;-66
2023/05/16 13:58:14;;;;;;;1.77;1.30;;;;;15.00;96020.00;;;;5082610;28;20230;-66
2023/05/16 14:01:03;;;;;;;2.43;1.63;;;;;15.10;96013.00;;;;5083125;28;20215;-68
2023/05/16 14:03:53;;;;;;;5.27;1.57;;;;;15.40;96015.00;;;;5080738;28;20693;-67
2023/05/16 14:06:42;;;;;;;1.50;1.40;;;;;14.80;95999.00;;;;5082718;28;20220;-74
2023/05/16 14:09:33;;;;;;;1.97;1.83;;;;;14.90;95993.00;;;;5094898;28;20203;-67
2023/05/16 14:12:24;;;;;;;1.80;1.70;;;;;14.90;95977.00;;;;5085653;28;20202;-66